• Join FlightAware (Why Join?)
  • Login
  • US Flag 
01:16AM EDT


 

Airport Tracker/Info


-or-


 

Live Flight TrackerFlight Track Log ✈ AWE801 ✈ 07-May-2013 ✈ SBGL / GIG - KCLT

Flight Track Log - Related Links

Times and Time Zones

All times are in EDT time to prevent confusion due to time zone crossing. See the AWE801 flight status page for this flight to view local times or setup timezone preferences in your user account.

Time Position Orientation Groundspeed Altitude Reporting Facility
EDT Latitude Longitude Course Direction KTS MPH feet Rate Location/Type
02:06AM 8.4671 -59.0106 334° Northwest  Level FlightAware Approximate
02:07AM 8.5738 -59.0630 334° Northwest  Level FlightAware Approximate
02:08AM 8.6805 -59.1156 334° Northwest  Level FlightAware Approximate
02:09AM 8.7871 -59.1682 334° Northwest  Level FlightAware Approximate
02:10AM 8.8937 -59.2210 334° Northwest  Level FlightAware Approximate
02:11AM 9.0003 -59.2738 334° Northwest  Level FlightAware Approximate
02:12AM 9.1068 -59.3266 334° Northwest  Level FlightAware Approximate
02:13AM 9.2134 -59.3795 334° Northwest  Level FlightAware Approximate
02:14AM 9.3199 -59.4324 334° Northwest  Level FlightAware Approximate
02:15AM 9.4264 -59.4854 334° Northwest  Level FlightAware Approximate
02:16AM 9.5330 -59.5383 334° Northwest  Level FlightAware Approximate
02:17AM 9.6395 -59.5914 334° Northwest  Level FlightAware Approximate
02:18AM 9.7460 -59.6444 334° Northwest  Level FlightAware Approximate
02:19AM 9.8525 -59.6975 334° Northwest  Level FlightAware Approximate
02:20AM 9.9590 -59.7506 334° Northwest  Level FlightAware Approximate
02:21AM 10.0654 -59.8037 334° Northwest  Level FlightAware Approximate
02:22AM 10.1719 -59.8569 334° Northwest  Level FlightAware Approximate
02:23AM 10.2784 -59.9101 334° Northwest  Level FlightAware Approximate
02:24AM 10.3848 -59.9634 334° Northwest  Level FlightAware Approximate
02:25AM 10.4913 -60.0167 334° Northwest  Level FlightAware Approximate
02:26AM 10.5977 -60.0700 334° Northwest  Level FlightAware Approximate
02:27AM 10.7041 -60.1233 334° Northwest  Level FlightAware Approximate
02:28AM 10.8106 -60.1767 334° Northwest  Level FlightAware Approximate
02:29AM 10.9170 -60.2302 334° Northwest  Level FlightAware Approximate
02:30AM 11.0234 -60.2836 334° Northwest  Level FlightAware Approximate
02:31AM 11.1298 -60.3371 334° Northwest  Level FlightAware Approximate
02:32AM 11.2428 -60.3941 334° Northwest  Level FlightAware Approximate
02:33AM 11.3559 -60.4510 334° Northwest  Level FlightAware Approximate
02:34AM 11.4689 -60.5080 334° Northwest  Level FlightAware Approximate
02:35AM 11.5820 -60.5651 334° Northwest  Level FlightAware Approximate
02:36AM 11.6950 -60.6222 334° Northwest  Level FlightAware Approximate
02:37AM 11.8080 -60.6793 334° Northwest  Level FlightAware Approximate
02:38AM 11.9210 -60.7365 334° Northwest  Level FlightAware Approximate
02:39AM 12.0340 -60.7938 334° Northwest  Level FlightAware Approximate
02:40AM 12.1470 -60.8511 334° Northwest  Level FlightAware Approximate
02:41AM 12.2599 -60.9084 334° Northwest  Level FlightAware Approximate
02:42AM 12.3729 -60.9658 334° Northwest  Level FlightAware Approximate
02:43AM 12.4858 -61.0232 334° Northwest  Level FlightAware Approximate
02:44AM 12.5988 -61.0807 334° Northwest  Level FlightAware Approximate
02:45AM 12.7117 -61.1383 334° Northwest  Level FlightAware Approximate
02:46AM 12.8246 -61.1959 334° Northwest  Level FlightAware Approximate
02:47AM 12.9375 -61.2535 334° Northwest  Level FlightAware Approximate
02:48AM 13.0504 -61.3112 334° Northwest  Level FlightAware Approximate
02:49AM 13.1632 -61.3689 334° Northwest  Level FlightAware Approximate
02:50AM 13.2761 -61.4267 334° Northwest  Level FlightAware Approximate
02:51AM 13.3889 -61.4846 333° Northwest  Level FlightAware Approximate
02:52AM 13.5017 -61.5425 333° Northwest  Level FlightAware Approximate
02:53AM 13.6145 -61.6005 333° Northwest  Level FlightAware Approximate
02:54AM 13.7274 -61.6585 333° Northwest  Level FlightAware Approximate
02:55AM 13.8401 -61.7165 333° Northwest  Level FlightAware Approximate
02:56AM 13.9529 -61.7747 333° Northwest  Level FlightAware Approximate
02:57AM 14.0657 -61.8329 333° Northwest  Level FlightAware Approximate
02:58AM 14.1784 -61.8911 333° Northwest  Level FlightAware Approximate
02:59AM 14.2912 -61.9494 333° Northwest  Level FlightAware Approximate
03:00AM 14.4039 -62.0078 333° Northwest  Level FlightAware Approximate
03:01AM 14.5166 -62.0662 333° Northwest  Level FlightAware Approximate
03:02AM 14.6293 -62.1247 333° Northwest  Level FlightAware Approximate
03:03AM 14.7419 -62.1832 333° Northwest  Level FlightAware Approximate
03:04AM 14.8546 -62.2418 333° Northwest  Level FlightAware Approximate
03:05AM 14.9672 -62.3005 333° Northwest  Level FlightAware Approximate
03:06AM 15.0799 -62.3592 333° Northwest  Level FlightAware Approximate
03:07AM 15.1925 -62.4180 333° Northwest  Level FlightAware Approximate
03:08AM 15.3051 -62.4768 333° Northwest  Level FlightAware Approximate
03:09AM 15.4177 -62.5357 333° Northwest  Level FlightAware Approximate
03:10AM 15.5302 -62.5947 333° Northwest  Level FlightAware Approximate
03:11AM 15.6428 -62.6538 333° Northwest  Level FlightAware Approximate
03:12AM 15.7553 -62.7129 333° Northwest  Level FlightAware Approximate
03:12AM 15.9667 -62.5833 316° Northwest 450 518 38,000  Level San Juan Center
03:13AM 15.8678 -62.7720 333° Northwest  Level FlightAware Approximate
03:13AM 16.0500 -62.6667 316° Northwest 450 518 38,000  Level San Juan Center
03:14AM 15.9803 -62.8313 333° Northwest  Level FlightAware Approximate
03:14AM 16.1167 -62.7833 301° West 450 518 38,000  Level San Juan Center
03:15AM 16.0928 -62.8906 333° Northwest  Level FlightAware Approximate
03:15AM 16.2167 -62.8667 321° Northwest 450 518 38,000  Level San Juan Center
03:16AM 16.2053 -62.9500 333° Northwest  Level FlightAware Approximate
03:16AM 16.2833 -62.9667 305° West 440 506 38,000  Level San Juan Center
03:17AM 16.3144 -63.0144 316° Northwest  Level FlightAware Approximate
03:17AM 16.3833 -63.0667 316° Northwest 450 518 38,700  Level San Juan Center
03:18AM 16.4667 -63.1667 311° West 450 518 40,000 600 Climbing San Juan Center
03:19AM 16.5333 -63.2833 301° West 450 518 40,000  Level San Juan Center
03:20AM 16.6167 -63.3667 316° Northwest 450 518 40,000  Level San Juan Center
03:21AM 16.7167 -63.4500 321° Northwest 440 506 40,000  Level San Juan Center
03:22AM 16.8000 -63.5500 311° West 430 495 40,000  Level San Juan Center
03:23AM 16.8833 -63.6500 311° West 430 495 40,000  Level San Juan Center
03:24AM 16.9667 -63.7333 316° Northwest 430 495 40,000  Level San Juan Center
03:25AM 17.0500 -63.8333 311° West 430 495 40,000  Level San Juan Center
03:26AM 17.1333 -63.9167 316° Northwest 430 495 40,000  Level San Juan Center
03:27AM 17.2167 -64.0000 316° Northwest 430 495 40,000  Level San Juan Center
03:28AM 17.3000 -64.1000 311° West 440 506 40,000  Level San Juan Center
03:29AM 17.3833 -64.2000 311° West 440 506 40,000  Level San Juan Center
03:30AM 17.4667 -64.2833 316° Northwest 440 506 40,000  Level San Juan Center
03:31AM 17.5500 -64.3833 311° West 440 506 40,000  Level San Juan Center
03:32AM 17.6333 -64.4833 311° West 440 506 40,000  Level San Juan Center
03:33AM 17.7167 -64.5667 316° Northwest 440 506 40,000  Level San Juan Center
03:34AM 17.8000 -64.6500 316° Northwest 430 495 40,000  Level San Juan Center
03:35AM 17.8833 -64.7500 311° West 430 495 40,000  Level San Juan Center
03:36AM 17.9667 -64.8500 311° West 440 506 40,000  Level San Juan Center
03:37AM 18.0500 -64.9333 316° Northwest 430 495 40,000  Level San Juan Center
03:38AM 18.1333 -65.0333 311° West 430 495 40,000  Level San Juan Center
03:39AM 18.2167 -65.1333 311° West 450 518 40,000  Level San Juan Center
03:40AM 18.3000 -65.2333 311° West 440 506 40,000  Level San Juan Center
03:41AM 18.3833 -65.3167 317° Northwest 430 495 40,000  Level San Juan Center
03:42AM 18.4667 -65.4000 317° Northwest 410 472 40,000  Level San Juan Center
03:43AM 18.5500 -65.5000 311° West 420 483 40,000  Level San Juan Center
03:44AM 18.6333 -65.6000 311° West 450 518 40,000  Level San Juan Center
03:45AM 18.7167 -65.6833 317° Northwest 420 483 40,000  Level San Juan Center
03:46AM 18.7833 -65.7667 310° West 420 483 40,000  Level San Juan Center
03:47AM 18.8833 -65.8667 317° Northwest 430 495 40,000  Level San Juan Center
03:48AM 18.9500 -65.9667 305° West 420 483 40,000  Level San Juan Center
03:49AM 19.0333 -66.0500 317° Northwest 420 483 40,000  Level San Juan Center
03:50AM 19.1167 -66.1500 311° West 430 495 40,000  Level San Juan Center
03:51AM 19.1833 -66.2333 310° West 430 495 40,000  Level San Juan Center
03:52AM 19.2667 -66.3333 311° West 430 495 40,000  Level San Juan Center
03:53AM 19.3500 -66.4167 317° Northwest 430 495 40,000  Level San Juan Center
03:54AM 19.4333 -66.5167 311° West 430 495 40,000  Level San Juan Center
03:55AM 19.5167 -66.6000 317° Northwest 430 495 40,000  Level San Juan Center
03:56AM 19.6000 -66.7000 312° West 430 495 40,000  Level San Juan Center
03:57AM 19.6833 -66.8000 312° West 420 483 40,000  Level San Juan Center
03:58AM 19.7500 -66.8833 310° West 430 495 40,000  Level San Juan Center
03:59AM 19.8333 -66.9833 312° West 430 495 40,000  Level San Juan Center
04:00AM 19.9167 -67.0667 317° Northwest 430 495 40,000  Level San Juan Center
04:01AM 20.0000 -67.1667 312° West 420 483 40,000  Level San Juan Center
04:02AM 20.0833 -67.2667 312° West 430 495 40,000  Level San Juan Center
04:03AM 20.1500 -67.3500 310° West 430 495 40,000  Level San Juan Center
04:04AM 20.2333 -67.4500 312° West 430 495 40,000  Level San Juan Center
04:05AM 20.3167 -67.5333 317° Northwest 430 495 40,000  Level San Juan Center
04:06AM 20.4000 -67.6333 312° West 420 483 40,000  Level San Juan Center
04:08AM 20.5386 -67.7869 314° West 451 519 40,000  Level Miami Center
04:09AM 20.6211 -67.8789 314° West 445 512 40,000  Level Miami Center
04:10AM 20.7111 -67.9614 319° Northwest 434 499 40,000  Level Miami Center
04:11AM 20.8011 -68.0461 319° Northwest 429 494 40,000  Level Miami Center
04:12AM 20.8956 -68.1286 321° Northwest 429 494 40,000  Level Miami Center
04:13AM 20.9856 -68.2139 319° Northwest 434 499 40,000  Level Miami Center
04:14AM 21.0797 -68.2964 321° Northwest 434 499 40,000  Level Miami Center
04:15AM 21.1656 -68.3797 318° Northwest 428 493 40,000  Level Miami Center
04:16AM 21.2575 -68.4631 320° Northwest 433 498 40,000  Level Miami Center
04:17AM 21.3517 -68.5481 320° Northwest 433 498 40,000  Level Miami Center
04:18AM 21.4436 -68.6292 321° Northwest 428 493 40,000  Level Miami Center
04:19AM 21.5314 -68.7150 318° Northwest 428 493 40,000  Level Miami Center
04:20AM 21.6233 -68.7964 321° Northwest 428 493 40,000  Level Miami Center
04:21AM 21.7214 -68.8819 321° Northwest 439 505 40,000  Level Miami Center
04:22AM 21.8047 -68.9617 318° Northwest 428 493 40,000  Level Miami Center
04:23AM 21.8944 -69.0456 319° Northwest 428 493 40,000  Level Miami Center
04:24AM 21.9886 -69.1317 320° Northwest 433 498 40,000  Level Miami Center
04:25AM 22.0761 -69.2139 319° Northwest 433 498 40,000  Level Miami Center
04:26AM 22.1678 -69.2981 320° Northwest 433 498 40,000  Level Miami Center
04:27AM 22.2419 -69.3653 320° Northwest 433 498 40,000  Level Miami Center
04:28AM 22.3533 -69.4689 319° Northwest 433 498 40,000  Level Miami Center
04:29AM 22.4450 -69.5533 320° Northwest 433 498 40,000  Level Miami Center
04:30AM 22.5347 -69.6381 319° Northwest 433 498 40,000  Level Miami Center
04:31AM 22.6283 -69.7250 319° Northwest 433 498 40,000  Level Miami Center
04:32AM 22.7200 -69.8097 320° Northwest 433 498 40,000  Level Miami Center
04:33AM 22.8117 -69.8972 319° Northwest 433 498 40,000  Level Miami Center
04:34AM 22.9031 -69.9822 319° Northwest 433 498 40,000  Level Miami Center
04:35AM 22.9903 -70.0608 320° Northwest 428 493 40,000  Level Miami Center
04:36AM 23.0817 -70.1508 318° Northwest 428 493 40,000  Level Miami Center
04:37AM 23.1711 -70.2386 318° Northwest 428 493 40,000  Level Miami Center
04:38AM 23.2625 -70.3197 321° Northwest 428 493 40,000  Level Miami Center
04:39AM 23.3497 -70.4056 318° Northwest 428 493 40,000  Level Miami Center
04:40AM 23.4389 -70.4917 318° Northwest 428 493 40,000  Level Miami Center
04:41AM 23.5281 -70.5753 319° Northwest 428 493 40,000  Level Miami Center
04:42AM 23.6150 -70.6617 318° Northwest 428 493 40,000  Level Miami Center
04:43AM 23.7017 -70.7367 322° Northwest 422 486 40,000  Level Miami Center
04:44AM 23.7950 -70.8275 318° Northwest 427 491 40,000  Level Miami Center
04:45AM 23.8819 -70.9142 318° Northwest 427 491 40,000  Level Miami Center
04:46AM 23.9708 -70.9983 319° Northwest 421 484 40,000  Level Miami Center
04:47AM 24.0600 -71.0897 317° Northwest 426 490 40,000  Level Miami Center
04:48AM 24.1508 -71.1697 321° Northwest 426 490 40,000  Level Miami Center
04:49AM 24.2397 -71.2592 317° Northwest 426 490 40,000  Level Miami Center
04:50AM 24.3289 -71.3506 317° Northwest 432 497 40,000  Level Miami Center
04:51AM 24.4175 -71.4381 318° Northwest 437 503 40,000  Level Miami Center
04:52AM 24.5061 -71.5208 320° Northwest 429 494 40,000  Level Miami Center
04:53AM 24.5933 -71.6175 315° West 429 494 40,000  Level Miami Center
04:54AM 24.6836 -71.6981 321° Northwest 429 494 40,000  Level Miami Center
04:55AM 24.7706 -71.7928 315° West 435 501 40,000  Level Miami Center
04:56AM 24.8592 -71.8808 318° Northwest 429 494 40,000  Level Miami Center
04:57AM 24.9431 -71.9553 321° Northwest 429 494 40,000  Level Miami Center
04:58AM 25.0375 -72.0339 323° Northwest 439 505 40,000  Level Miami Center
04:59AM 25.0000 -72.0000 330° Northwest 450 518 40,000  Level New York Oceanic (ODAPS)
05:05AM 25.8697 -72.5528 330° Northwest 450 518 40,000  Level FlightAware Transoceanic
05:06AM 25.9783 -72.6225 330° Northwest 450 518 40,000  Level FlightAware Transoceanic
05:07AM 26.0868 -72.6923 330° Northwest 450 518 40,000  Level FlightAware Transoceanic
05:08AM 26.1953 -72.7623 330° Northwest 450 518 40,000  Level FlightAware Transoceanic
05:09AM 26.3037 -72.8323 330° Northwest 450 518 40,000  Level FlightAware Transoceanic
05:10AM 26.4122 -72.9025 330° Northwest 450 518 40,000  Level FlightAware Transoceanic
05:11AM 26.5206 -72.9728 330° Northwest 450 518 40,000  Level FlightAware Transoceanic
05:12AM 26.6289 -73.0433 330° Northwest 450 518 40,000  Level FlightAware Transoceanic
05:13AM 26.7372 -73.1139 330° Northwest 450 518 40,000  Level FlightAware Transoceanic
05:14AM 26.8455 -73.1846 330° Northwest 450 518 40,000  Level FlightAware Transoceanic
05:15AM 26.9538 -73.2555 330° Northwest 450 518 40,000  Level FlightAware Transoceanic
05:16AM 27.0620 -73.3265 330° Northwest 450 518 40,000  Level FlightAware Transoceanic
05:17AM 27.1702 -73.3976 330° Northwest 450 518 40,000  Level FlightAware Transoceanic
05:18AM 27.2783 -73.4689 330° Northwest 450 518 40,000  Level FlightAware Transoceanic
05:19AM 27.3864 -73.5403 330° Northwest 450 518 40,000  Level FlightAware Transoceanic
05:20AM 27.4945 -73.6118 330° Northwest 450 518 40,000  Level FlightAware Transoceanic
05:21AM 27.6026 -73.6835 330° Northwest 450 518 40,000  Level FlightAware Transoceanic
05:22AM 27.7106 -73.7553 329° Northwest 450 518 40,000  Level FlightAware Transoceanic
05:23AM 27.8185 -73.8273 329° Northwest 450 518 40,000  Level FlightAware Transoceanic
05:24AM 27.9265 -73.8994 329° Northwest 450 518 40,000  Level FlightAware Transoceanic
05:25AM 28.0343 -73.9717 329° Northwest 450 518 40,000  Level FlightAware Transoceanic
05:26AM 28.1422 -74.0441 329° Northwest 450 518 40,000  Level FlightAware Transoceanic
05:27AM 28.2500 -74.1167 322° Northwest 450 518 40,000  Level FlightAware Transoceanic
05:28AM 28.3478 -74.2041 322° Northwest 450 518 40,000  Level FlightAware Transoceanic
05:29AM 28.4455 -74.2918 322° Northwest 450 518 40,000  Level FlightAware Transoceanic
05:30AM 28.5432 -74.3795 322° Northwest 450 518 40,000  Level FlightAware Transoceanic
05:31AM 28.6408 -74.4675 322° Northwest 450 518 40,000  Level FlightAware Transoceanic
05:31AM 28.2500 -74.1167 322° Northwest 434 499 40,000  Level New York Oceanic (ODAPS)
05:32AM 28.7384 -74.5556 322° Northwest 450 518 40,000  Level FlightAware Transoceanic
05:33AM 28.8359 -74.6439 322° Northwest 450 518 40,000  Level FlightAware Transoceanic
05:34AM 28.9334 -74.7324 322° Northwest 450 518 40,000  Level FlightAware Transoceanic
05:35AM 29.0308 -74.8210 321° Northwest 450 518 40,000  Level FlightAware Transoceanic
05:36AM 29.1281 -74.9098 321° Northwest 450 518 40,000  Level FlightAware Transoceanic
05:37AM 29.1959 -74.9717 321° Northwest 434 499 40,000  Level FlightAware Transoceanic
05:38AM 29.2902 -75.0581 321° Northwest 434 499 40,000  Level FlightAware Transoceanic
05:39AM 29.3845 -75.1446 321° Northwest 434 499 40,000  Level FlightAware Transoceanic
05:40AM 29.4786 -75.2313 321° Northwest 434 499 40,000  Level FlightAware Transoceanic
05:41AM 29.5728 -75.3182 321° Northwest 434 499 40,000  Level FlightAware Transoceanic
05:42AM 29.6668 -75.4052 321° Northwest 434 499 40,000  Level FlightAware Transoceanic
05:43AM 29.7608 -75.4923 321° Northwest 434 499 40,000  Level FlightAware Transoceanic
05:44AM 29.8548 -75.5797 321° Northwest 434 499 40,000  Level FlightAware Transoceanic
05:45AM 29.9487 -75.6672 321° Northwest 434 499 40,000  Level FlightAware Transoceanic
05:46AM 30.0425 -75.7548 321° Northwest 434 499 40,000  Level FlightAware Transoceanic
05:47AM 30.1363 -75.8427 321° Northwest 434 499 40,000  Level FlightAware Transoceanic
05:48AM 30.2300 -75.9307 321° Northwest 434 499 40,000  Level FlightAware Transoceanic
05:49AM 30.3237 -76.0188 321° Northwest 434 499 40,000  Level FlightAware Transoceanic
05:50AM 30.4173 -76.1072 321° Northwest 434 499 40,000  Level FlightAware Transoceanic
05:51AM 30.5108 -76.1957 321° Northwest 434 499 40,000  Level FlightAware Transoceanic
05:52AM 30.6043 -76.2844 321° Northwest 434 499 40,000  Level FlightAware Transoceanic
05:53AM 30.6978 -76.3732 321° Northwest 434 499 40,000  Level FlightAware Transoceanic
05:54AM 30.7911 -76.4622 321° Northwest 434 499 40,000  Level FlightAware Transoceanic
05:55AM 30.8844 -76.5514 321° Northwest 434 499 40,000  Level FlightAware Transoceanic
05:55AM 30.9161 -76.5469 321° Northwest 448 516 40,000  Level Jacksonville Center
05:56AM 30.9777 -76.6408 321° Northwest 434 499 40,000  Level FlightAware Transoceanic
05:56AM 31.0267 -76.6292 327° Northwest 448 516 40,000  Level Jacksonville Center
05:57AM 31.0708 -76.7303 321° Northwest 434 499 40,000  Level FlightAware Transoceanic
05:57AM 31.1564 -76.7200 329° Northwest 454 522 40,000  Level Jacksonville Center
05:58AM 31.1639 -76.8200 320° Northwest 434 499 40,000  Level FlightAware Transoceanic
05:58AM 31.2289 -76.8439 304° West 454 522 40,000  Level Jacksonville Center
05:59AM 31.2570 -76.9099 320° Northwest 434 499 40,000  Level FlightAware Transoceanic
05:59AM 31.3131 -76.9431 315° West 438 504 40,000  Level Jacksonville Center
06:00AM 31.3500 -77.0000 321° Northwest 434 499 40,000  Level FlightAware Transoceanic
06:00AM 31.4011 -77.0394 317° Northwest 433 498 40,000  Level Jacksonville Center
06:01AM 31.4969 -77.1286 322° Northwest 438 504 40,000  Level Jacksonville Center
06:03AM 31.6078 -77.2753 312° West 432 497 40,000  Level Jacksonville Center
06:04AM 31.6656 -77.3986 299° West 438 504 40,000  Level Jacksonville Center
06:05AM 31.7250 -77.5197 300° West 431 496 40,000  Level Jacksonville Center
06:06AM 31.7839 -77.6358 301° West 418 481 40,000  Level Jacksonville Center
06:07AM 31.8414 -77.7597 299° West 414 476 40,000  Level Jacksonville Center
06:08AM 31.8983 -77.8789 299° West 419 482 40,000  Level Jacksonville Center
06:09AM 31.9575 -78.0056 299° West 427 491 40,000  Level Jacksonville Center
06:10AM 32.0122 -78.1275 298° West 427 491 40,000  Level Jacksonville Center
06:11AM 32.0600 -78.2328 298° West 427 491 40,000  Level Jacksonville Center
06:12AM 32.1253 -78.3644 300° West 427 491 40,000 -480 Level Jacksonville Center
06:13AM 32.1839 -78.4892 299° West 427 491 39,100 -960 Descending Jacksonville Center
06:14AM 32.2403 -78.6142 298° West 427 491 38,100 -1,020 Descending Jacksonville Center
06:15AM 32.2967 -78.7367 299° West 427 491 37,100 -1,020 Descending Jacksonville Center
06:16AM 32.3550 -78.8594 299° West 422 486 36,100 -960 Descending Jacksonville Center
06:17AM 32.4086 -78.9778 298° West 422 486 35,200 -1,080 Descending Jacksonville Center
06:18AM 32.4667 -79.1008 299° West 422 486 34,000 -1,200 Descending Jacksonville Center
06:19AM 32.5306 -79.2164 303° West 422 486 32,800 -1,020 Descending Jacksonville Center
06:20AM 32.6431 -79.2783 335° Northwest 417 480 32,000 -960 Descending Jacksonville Center
06:21AM 32.7761 -79.3300 342° North 434 499 30,900 -540 Descending Jacksonville Center
06:22AM 32.8903 -79.3797 340° North 440 506 31,000  Climbing Jacksonville Center
06:23AM 33.0042 -79.4272 341° North 440 506 31,000 -720 Level Jacksonville Center
06:24AM 33.1225 -79.4772 341° North 434 499 29,600 -1,680 Descending Jacksonville Center
06:25AM 33.2386 -79.5275 340° North 439 505 27,700 -1,920 Descending Jacksonville Center
06:26AM 33.3464 -79.5758 339° North 427 491 25,800 -2,040 Descending Jacksonville Center
06:27AM 33.4497 -79.6192 341° North 411 473 23,700 -2,040 Descending Jacksonville Center
06:28AM 33.5469 -79.6653 338° Northwest 388 447 21,800 -2,100 Descending Jacksonville Center
06:29AM 33.6439 -79.7067 340° North 373 429 19,600 -2,160 Descending Jacksonville Center
06:30AM 33.7347 -79.7483 339° North 360 414 17,500 -1,800 Descending Jacksonville Center
06:31AM 33.8231 -79.7828 342° North 350 403 16,000 -1,260 Descending Jacksonville Center
06:32AM 33.9056 -79.8222 338° Northwest 337 388 15,000 -1,200 Descending Jacksonville Center
06:33AM 33.9856 -79.8572 340° North 313 360 13,600 -1,500 Descending Jacksonville Center
06:34AM 34.0614 -79.8894 341° North 303 349 12,000 -1,320 Descending Jacksonville Center
06:35AM 34.1336 -79.9347 333° Northwest 292 336 11,000 -540 Descending Jacksonville Center
06:36AM 34.2014 -79.9828 330° Northwest 287 330 11,000  Level Jacksonville Center
06:37AM 34.2733 -80.0256 334° Northwest 287 330 11,000  Level Jacksonville Center
06:38AM 34.3433 -80.0761 329° Northwest 282 325 11,000  Level Jacksonville Center
06:39AM 34.4131 -80.1189 333° Northwest 282 325 11,000 -60 Level Jacksonville Center
06:40AM 34.4831 -80.1672 330° Northwest 287 330 10,900  Descending Jacksonville Center
06:42AM 34.6083 -80.2533 331° Northwest 285 328 11,000  Climbing Atlanta Center
06:43AM 34.6683 -80.3036 325° Northwest 271 312 11,000  Level Atlanta Center
06:44AM 34.7183 -80.3694 313° West 263 303 11,000  Level Atlanta Center
06:44AM 34.7700 -80.4281 317° Northwest 266 306 11,000 -180 Level Atlanta Center
06:45AM 34.8200 -80.4942 313° West 267 307 10,700 -540 Descending Atlanta Center
06:46AM 34.8719 -80.5578 315° West 266 306 10,000 -360 Descending Atlanta Center
06:48AM 34.9367 -80.6311 317° Northwest 263 303 10,000  Level Atlanta Center
06:49AM 34.9842 -80.6975 311° West 261 300 10,000  Level Atlanta Center
06:50AM 35.0319 -80.7589 314° West 264 304 10,000  Level Atlanta Center
06:51AM 35.0875 -80.8153 320° Northwest 271 312 10,000 -480 Level Atlanta Center
06:52AM 35.1772 -80.8117 North 278 320 9,100 -1,200 Descending Atlanta Center
06:53AM 35.2461 -80.8114 360° North 271 312 7,600 -1,740 Descending Atlanta Center
06:54AM 35.3128 -80.8142 358° North 265 305 6,000 -1,380 Descending Atlanta Center
06:55AM 35.3839 -80.8164 359° North 258 297 5,000 -720 Descending Atlanta Center
06:56AM 35.4408 -80.8397 342° North 206 237 4,600 -540 Descending Atlanta Center
06:57AM 35.4342 -80.9011 262° West 182 209 4,000 -360 Descending Atlanta Center
06:58AM 35.4189 -80.9628 253° West 190 219 3,900 -120 Descending Atlanta Center